Terminal Aerodrome Forecast
Issued by NWS

Home | Current Version | Previous Version | Graphics & Text | Print | Product List | Glossary On
Versions: 1 2 3 4 5 6 7 8 9 10 11 12 13 14 15 16 17 18 19 20 21
000
FTUS43 KLSX 271548 AAC
TAFSUS
TAF AMD
KSUS 271548Z 2716/2812 21005KT P6SM SCT010 OVC040
     FM271700 24005KT P6SM VCSH OVC020
     FM280000 32004KT P6SM OVC020=

USA.gov is the U.S. government's official web portal to all federal, state and local government web resources and services.